createdAt,value
2022-08-22T00:02:41.977Z,6.30
2022-08-22T00:03:58.393Z,7.10
2022-08-22T00:08:11.092Z,10.20
2022-08-22T00:12:25.056Z,7.30
2022-08-22T00:16:40.641Z,9.90
2022-08-22T00:20:54.407Z,8.00
2022-08-22T00:25:24.688Z,10.90
2022-08-22T00:29:39.003Z,7.70
2022-08-22T00:33:52.352Z,7.80
2022-08-22T00:38:05.366Z,7.90
2022-08-22T00:42:57.607Z,8.50
2022-08-22T00:47:23.015Z,7.60
2022-08-22T00:51:50.453Z,7.00
2022-08-22T00:56:12.176Z,9.30
2022-08-22T01:00:23.156Z,8.10
2022-08-22T01:04:54.368Z,7.50
2022-08-22T01:09:06.979Z,8.90
2022-08-22T01:13:31.316Z,7.50
2022-08-22T01:18:02.192Z,6.90
2022-08-22T01:22:47.027Z,8.50
2022-08-22T01:27:11.573Z,9.40
2022-08-22T01:31:46.683Z,8.60
2022-08-22T01:36:17.912Z,7.90
2022-08-22T01:41:00.842Z,8.10
2022-08-22T01:45:34.597Z,8.40
2022-08-22T01:49:48.246Z,7.40
2022-08-22T01:54:02.313Z,7.40
2022-08-22T01:58:19.242Z,9.70
2022-08-22T02:02:52.551Z,8.20
2022-08-22T02:07:07.934Z,7.60
2022-08-22T02:11:31.589Z,7.40
2022-08-22T02:15:51.294Z,9.80
2022-08-22T02:20:04.076Z,7.00
2022-08-22T02:24:23.835Z,9.30
2022-08-22T02:28:38.147Z,8.60
2022-08-22T02:32:58.589Z,5.60
2022-08-22T02:37:15.256Z,7.70
2022-08-22T02:41:28.688Z,6.80
2022-08-22T02:45:42.165Z,7.90
2022-08-22T02:49:59.724Z,6.90
2022-08-22T02:54:26.764Z,7.50
2022-08-22T02:58:47.026Z,6.00
2022-08-22T03:03:07.698Z,6.30
2022-08-22T03:07:26.407Z,5.90
2022-08-22T03:11:37.488Z,6.30
2022-08-22T03:15:49.430Z,7.10
2022-08-22T03:20:00.404Z,5.20
2022-08-22T03:24:13.313Z,8.30
2022-08-22T03:28:23.802Z,6.30
2022-08-22T03:32:55.920Z,6.30
2022-08-22T03:37:13.067Z,7.40
2022-08-22T03:41:47.073Z,6.20
2022-08-22T03:46:18.485Z,5.90
2022-08-22T03:50:56.381Z,5.60
2022-08-22T03:55:17.174Z,5.30
2022-08-22T03:59:49.432Z,8.00
2022-08-22T04:04:18.954Z,5.70
2022-08-22T04:08:59.802Z,6.10
2022-08-22T04:13:40.017Z,5.90
2022-08-22T04:18:33.450Z,6.60
2022-08-22T04:23:12.872Z,5.70
2022-08-22T04:27:26.072Z,5.80
2022-08-22T04:31:38.155Z,5.20
2022-08-22T04:35:56.907Z,5.70
2022-08-22T04:40:12.046Z,7.10
2022-08-22T04:44:24.480Z,5.90
2022-08-22T04:48:37.079Z,6.80
2022-08-22T04:52:53.794Z,6.10
2022-08-22T04:57:12.926Z,6.20
2022-08-22T05:01:22.593Z,5.70
2022-08-22T05:05:34.842Z,5.60
2022-08-22T05:09:46.455Z,8.00
2022-08-22T05:14:00.288Z,5.50
2022-08-22T05:18:10.353Z,5.30
2022-08-22T05:22:21.859Z,6.20
2022-08-22T05:26:31.227Z,5.90
2022-08-22T05:30:39.207Z,5.20
2022-08-22T05:34:49.122Z,5.70
2022-08-22T05:39:01.089Z,6.20
2022-08-22T05:43:10.593Z,4.40
2022-08-22T05:47:28.516Z,7.60
2022-08-22T05:51:42.030Z,6.30
2022-08-22T05:55:57.931Z,6.50
2022-08-22T06:00:11.162Z,6.00
2022-08-22T06:04:31.588Z,6.20
2022-08-22T06:08:41.365Z,6.30
2022-08-22T06:12:55.498Z,5.70
2022-08-22T06:17:11.747Z,5.40
2022-08-22T06:21:26.555Z,6.30
2022-08-22T06:25:37.853Z,6.00
2022-08-22T06:29:49.902Z,4.80
2022-08-22T06:34:04.737Z,6.90
2022-08-22T06:38:13.574Z,5.90
2022-08-22T06:42:23.378Z,5.90
2022-08-22T06:46:33.478Z,7.40
2022-08-22T06:50:42.973Z,5.50
2022-08-22T06:54:53.001Z,5.40
2022-08-22T06:59:02.824Z,5.10
2022-08-22T07:03:12.913Z,5.80
2022-08-22T07:07:23.109Z,4.80
2022-08-22T07:11:33.373Z,5.10
2022-08-22T07:15:44.406Z,7.20
2022-08-22T07:19:59.720Z,6.30
2022-08-22T07:24:08.257Z,5.80
2022-08-22T07:28:31.750Z,5.40
2022-08-22T07:32:50.878Z,5.00
2022-08-22T07:37:02.274Z,7.70
2022-08-22T07:41:15.505Z,5.90
2022-08-22T07:45:29.938Z,5.30
2022-08-22T07:49:49.663Z,5.70
2022-08-22T07:54:03.673Z,5.50
2022-08-22T07:58:13.809Z,4.70
2022-08-22T08:02:22.998Z,4.90
2022-08-22T08:06:32.570Z,4.50
2022-08-22T08:10:42.036Z,5.80
2022-08-22T08:14:54.062Z,4.90
2022-08-22T08:19:06.790Z,7.50
2022-08-22T08:23:23.406Z,5.10
2022-08-22T08:27:51.325Z,5.30
2022-08-22T08:32:00.020Z,5.20
2022-08-22T08:36:15.876Z,5.10
2022-08-22T08:40:49.204Z,5.50
2022-08-22T08:45:25.410Z,6.70
2022-08-22T08:49:55.485Z,5.60
2022-08-22T08:54:24.831Z,6.10
2022-08-22T08:58:39.270Z,5.30
2022-08-22T09:03:07.299Z,5.10
2022-08-22T09:07:50.886Z,5.60
2022-08-22T09:12:27.115Z,4.50
2022-08-22T09:16:51.579Z,5.40
2022-08-22T09:21:29.730Z,4.30
2022-08-22T09:25:41.586Z,5.10
2022-08-22T09:29:55.386Z,5.00
2022-08-22T09:34:12.581Z,5.20
2022-08-22T09:38:34.781Z,6.30
2022-08-22T09:42:49.968Z,5.10
2022-08-22T09:47:07.603Z,5.40
2022-08-22T09:51:33.104Z,5.10
2022-08-22T09:55:45.143Z,5.30
2022-08-22T10:00:22.396Z,4.40
2022-08-22T10:04:46.233Z,5.10
2022-08-22T10:09:02.621Z,4.60
2022-08-22T10:13:16.460Z,3.80
2022-08-22T10:17:32.614Z,5.10
2022-08-22T10:21:48.767Z,3.90
2022-08-22T10:25:59.535Z,4.40
2022-08-22T10:30:13.398Z,4.70
2022-08-22T10:34:26.359Z,5.00
2022-08-22T10:38:46.502Z,6.50
2022-08-22T10:42:59.365Z,5.00
2022-08-22T10:47:13.930Z,5.40
2022-08-22T10:51:38.040Z,4.60
2022-08-22T10:55:51.721Z,5.10
2022-08-22T11:00:15.560Z,4.90
2022-08-22T11:04:36.803Z,5.40
2022-08-22T11:09:14.922Z,6.40
2022-08-22T11:13:32.212Z,6.00
2022-08-22T11:18:13.198Z,7.20
2022-08-22T11:22:33.163Z,7.90
2022-08-22T11:26:46.641Z,6.90
2022-08-22T11:31:07.223Z,8.80
2022-08-22T11:35:21.228Z,7.10
2022-08-22T11:39:35.389Z,6.40
2022-08-22T11:44:01.466Z,7.80
2022-08-22T11:48:14.462Z,10.70
2022-08-22T11:52:26.887Z,7.30
2022-08-22T11:56:41.543Z,9.70
2022-08-22T12:00:54.311Z,9.40
2022-08-22T12:05:08.789Z,9.70
2022-08-22T12:09:47.720Z,10.30
2022-08-22T12:14:02.330Z,9.00
2022-08-22T12:18:38.758Z,8.30
2022-08-22T12:23:03.471Z,8.80
2022-08-22T12:27:29.304Z,9.30
2022-08-22T12:31:42.699Z,10.40
2022-08-22T12:36:01.845Z,8.90
2022-08-22T12:40:26.395Z,9.00
2022-08-22T12:44:44.626Z,10.50
2022-08-22T12:49:07.461Z,9.10
2022-08-22T12:53:46.099Z,9.60
2022-08-22T12:58:00.884Z,7.60
2022-08-22T13:02:19.210Z,9.50
2022-08-22T13:07:06.662Z,9.20
2022-08-22T13:11:22.984Z,7.00
2022-08-22T13:15:34.321Z,7.50
2022-08-22T13:19:56.221Z,8.70
2022-08-22T13:24:10.601Z,7.80
2022-08-22T13:28:20.347Z,9.10
2022-08-22T13:32:32.906Z,8.10
2022-08-22T13:36:52.126Z,6.90
2022-08-22T13:41:01.436Z,8.00
2022-08-22T13:45:15.897Z,8.30
2022-08-22T13:49:36.181Z,8.10
2022-08-22T13:53:56.709Z,8.60
2022-08-22T13:58:14.572Z,9.90
2022-08-22T14:02:39.052Z,8.60
2022-08-22T14:06:55.677Z,8.90
2022-08-22T14:11:08.493Z,8.70
2022-08-22T14:15:24.065Z,7.20
2022-08-22T14:19:58.766Z,8.30
2022-08-22T14:24:07.565Z,8.00
2022-08-22T14:28:27.680Z,8.50
2022-08-22T14:32:44.588Z,8.20
2022-08-22T14:36:58.163Z,10.20
2022-08-22T14:41:09.358Z,7.70
2022-08-22T14:45:21.913Z,9.10
2022-08-22T14:49:38.226Z,7.60
2022-08-22T14:53:45.776Z,9.70
2022-08-22T14:58:03.368Z,12.70
2022-08-22T15:02:14.699Z,11.90
2022-08-22T15:06:37.056Z,12.40
2022-08-22T15:10:45.547Z,11.90
2022-08-22T15:14:56.585Z,12.30
2022-08-22T15:19:06.731Z,11.20
2022-08-22T15:23:22.104Z,12.70
2022-08-22T15:27:32.878Z,12.90
2022-08-22T15:31:46.445Z,14.50
2022-08-22T15:35:56.309Z,14.30
2022-08-22T15:40:12.738Z,12.60
2022-08-22T15:44:33.482Z,13.50
2022-08-22T15:48:43.451Z,14.00
2022-08-22T15:53:16.499Z,16.80
2022-08-22T15:57:29.670Z,15.70
2022-08-22T16:01:45.712Z,14.50
2022-08-22T16:06:00.917Z,15.00
2022-08-22T16:10:15.211Z,16.50
2022-08-22T16:14:26.741Z,14.40
2022-08-22T16:19:12.861Z,14.30
2022-08-22T16:23:20.467Z,15.40
2022-08-22T16:27:29.664Z,14.90
2022-08-22T16:31:39.418Z,16.20
2022-08-22T16:36:26.827Z,17.30
2022-08-22T16:40:48.734Z,19.60
2022-08-22T16:44:59.479Z,16.90
2022-08-22T16:49:08.074Z,20.00
2022-08-22T16:53:45.844Z,20.80
2022-08-22T16:58:06.427Z,19.80
2022-08-22T17:02:53.396Z,18.40
2022-08-22T17:07:11.598Z,16.80
2022-08-22T17:11:30.146Z,19.90
2022-08-22T17:15:52.038Z,17.20
2022-08-22T17:20:09.257Z,15.10
2022-08-22T17:24:34.083Z,17.60
2022-08-22T17:28:49.275Z,19.60
2022-08-22T17:33:15.065Z,16.80
2022-08-22T17:37:27.458Z,20.80
2022-08-22T17:41:41.230Z,19.40
2022-08-22T17:46:13.355Z,19.20
2022-08-22T17:50:27.131Z,21.10
2022-08-22T17:54:37.190Z,19.30
2022-08-22T17:58:49.648Z,19.50
2022-08-22T18:03:02.193Z,20.60
2022-08-22T18:07:29.164Z,18.70
2022-08-22T18:11:44.408Z,23.30
2022-08-22T18:18:31.271Z,19.90
2022-08-22T18:22:47.557Z,19.50
2022-08-22T18:27:02.945Z,22.10
2022-08-22T18:31:26.415Z,15.70
2022-08-22T18:35:41.776Z,22.00
2022-08-22T18:39:55.623Z,18.50
2022-08-22T18:44:12.778Z,18.90
2022-08-22T18:48:24.570Z,19.20
2022-08-22T18:52:46.399Z,20.90
2022-08-22T18:57:07.316Z,23.00
2022-08-22T19:01:42.012Z,20.00
2022-08-22T19:06:24.429Z,20.40
2022-08-22T19:10:56.553Z,17.20
2022-08-22T19:15:26.156Z,22.20
2022-08-22T19:20:01.784Z,18.40
2022-08-22T19:24:11.565Z,18.40
2022-08-22T19:28:31.315Z,19.60
2022-08-22T19:33:04.034Z,22.10
2022-08-22T19:37:34.186Z,18.20
2022-08-22T19:41:57.216Z,16.10
2022-08-22T19:46:09.146Z,18.00
2022-08-22T19:50:31.539Z,16.30
2022-08-22T19:54:48.596Z,15.40
2022-08-22T19:59:10.030Z,16.40
2022-08-22T20:03:31.212Z,14.80
2022-08-22T20:07:51.954Z,11.00
2022-08-22T20:12:12.004Z,12.40
2022-08-22T20:16:25.529Z,12.60
2022-08-22T20:21:01.504Z,9.90
2022-08-22T20:25:20.708Z,12.00
2022-08-22T20:29:44.267Z,11.60
2022-08-22T20:33:57.927Z,11.20
2022-08-22T20:38:08.905Z,11.90
2022-08-22T20:42:18.231Z,8.50
2022-08-22T20:46:53.544Z,10.80
2022-08-22T20:51:07.685Z,10.50
2022-08-22T20:55:19.498Z,11.20
2022-08-22T20:59:37.240Z,10.60
2022-08-22T21:03:47.124Z,12.40
2022-08-22T21:08:10.269Z,9.90
2022-08-22T21:12:19.676Z,9.90
2022-08-22T21:16:32.035Z,10.70
2022-08-22T21:20:40.959Z,10.10
2022-08-22T21:24:48.660Z,10.90
2022-08-22T21:29:02.134Z,10.40
2022-08-22T21:33:09.557Z,10.40
2022-08-22T21:37:18.947Z,10.00
2022-08-22T21:41:33.424Z,10.60
2022-08-22T21:45:47.366Z,9.90
2022-08-22T21:50:08.372Z,10.20
2022-08-22T21:54:40.343Z,8.80
2022-08-22T21:58:48.318Z,8.20
2022-08-22T22:03:02.874Z,9.30
2022-08-22T22:07:10.892Z,8.10
2022-08-22T22:11:19.391Z,9.40
2022-08-22T22:15:31.939Z,9.30
2022-08-22T22:19:40.540Z,8.50
2022-08-22T22:23:51.032Z,12.40
2022-08-22T22:27:59.229Z,10.60
2022-08-22T22:32:07.836Z,10.80
2022-08-22T22:36:17.837Z,29.20
2022-08-22T22:40:26.055Z,14.20
2022-08-22T22:44:34.400Z,13.00
2022-08-22T22:48:42.254Z,11.70
2022-08-22T22:52:50.012Z,13.70
2022-08-22T22:56:58.629Z,13.60
2022-08-22T23:01:13.607Z,13.50
2022-08-22T23:05:23.245Z,14.30
2022-08-22T23:09:37.938Z,13.30
2022-08-22T23:13:48.519Z,13.90
2022-08-22T23:17:56.366Z,15.20
2022-08-22T23:22:04.626Z,13.90
2022-08-22T23:26:13.388Z,13.90
2022-08-22T23:30:21.471Z,14.60
2022-08-22T23:34:30.953Z,14.80
2022-08-22T23:38:38.447Z,18.80
2022-08-22T23:42:46.425Z,13.30
2022-08-22T23:46:54.053Z,13.60
2022-08-22T23:51:01.845Z,15.00
2022-08-22T23:55:10.903Z,17.70
2022-08-22T23:59:24.270Z,16.30
